Terminal Aerodrome Forecast
Issued by NWS

Home | Current Version | Previous Version | Text Only | Print | Product List | Glossary On
Versions: 1 2 3 4 5 6 7 8 9 10 11 12 13 14 15 16 17 18 19 20
810
FTUS43 KSGF 191720
TAFJLN
TAF
KJLN 191720Z 1918/2018 16008KT P6SM SKC
     FM200000 17008KT P6SM BKN150
     FM200700 15010KT P6SM VCTS OVC050CB WS020/17040KT
     FM200900 15010KT 5SM -SHRA VCTS OVC035CB WS020/17040KT
     FM201100 16010KT 4SM -TSRA BKN015 OVC030CB
     FM201500 17010KT 1 1/2SM -TSRA BKN008 OVC030CB=

USA.gov is the U.S. government's official web portal to all federal, state and local government web resources and services.